Time;durP1;ratioP1;P1;durP2;ratioP2;P2;SDS_P1;SDS_P2;PMS_P1;PMS_P2;Temp;Humidity;BMP_temperature;BMP_pressure;BME280_temperature;BME280_humidity;BME280_pressure;Samples;Min_cycle;Max_cycle;Signal;HPM_P1;HPM_P2
2022/11/22 00:00:54;;;;;;;16.23;3.97;;;;;;;5.71;100.00;98993.63;5060788;28;20090;-84
2022/11/22 00:03:20;;;;;;;13.73;4.33;;;;;;;5.68;100.00;98994.88;5077344;28;20567;-84
2022/11/22 00:05:45;;;;;;;7.70;3.93;;;;;;;5.68;100.00;98986.00;5061888;28;20043;-84
2022/11/22 00:08:10;;;;;;;12.10;4.30;;;;;;;5.67;100.00;98977.13;5077990;28;20097;-84
2022/11/22 00:10:36;;;;;;;12.60;3.93;;;;;;;5.66;100.00;98983.53;5061584;28;20464;-84
2022/11/22 00:13:02;;;;;;;11.80;3.80;;;;;;;5.66;100.00;98975.47;5044572;28;20044;-85
2022/11/22 00:15:28;;;;;;;8.57;3.63;;;;;;;5.63;100.00;98987.50;5077477;28;20040;-84
2022/11/22 00:17:54;;;;;;;19.40;4.15;;;;;;;5.58;100.00;98982.00;5060866;28;20050;-84
2022/11/22 00:20:20;;;;;;;10.57;3.93;;;;;;;5.59;100.00;98985.50;5077653;28;20036;-84
2022/11/22 00:22:45;;;;;;;14.02;4.18;;;;;;;5.59;100.00;98983.63;5078143;28;20410;-84
2022/11/22 00:25:11;;;;;;;12.73;4.00;;;;;;;5.59;100.00;98980.94;5095739;28;20557;-84
2022/11/22 00:27:37;;;;;;;10.00;3.97;;;;;;;5.53;100.00;98975.66;5077159;28;20559;-84
2022/11/22 00:30:02;;;;;;;13.80;4.00;;;;;;;5.49;100.00;98985.22;5060340;28;20131;-84
2022/11/22 00:32:31;;;;;;;12.90;3.92;;;;;;;5.42;100.00;98977.28;5077110;28;20032;-84
2022/11/22 00:34:56;;;;;;;9.27;3.45;;;;;;;5.40;100.00;98982.88;5077897;28;20040;-85
2022/11/22 00:37:21;;;;;;;9.07;3.35;;;;;;;5.42;100.00;98990.72;5077116;28;20040;-84
2022/11/22 00:39:47;;;;;;;13.07;4.00;;;;;;;5.38;100.00;98981.47;5095711;28;20040;-84
2022/11/22 00:42:12;;;;;;;17.70;4.50;;;;;;;5.35;100.00;98987.28;5060246;28;20077;-84
2022/11/22 00:44:38;;;;;;;11.10;3.73;;;;;;;5.28;100.00;98987.34;5060496;28;20036;-85
2022/11/22 00:47:03;;;;;;;11.87;3.63;;;;;;;5.22;100.00;98986.38;5060253;28;20081;-84
2022/11/22 00:49:29;;;;;;;9.65;3.80;;;;;;;5.15;100.00;98985.66;5076119;28;20286;-85
2022/11/22 00:51:54;;;;;;;11.27;3.47;;;;;;;5.11;100.00;98979.09;5076784;28;20189;-84
2022/11/22 00:54:19;;;;;;;16.83;3.57;;;;;;;5.09;100.00;98983.88;5076992;28;20040;-84
2022/11/22 00:56:45;;;;;;;13.60;3.60;;;;;;;5.06;100.00;98990.53;5060303;28;20044;-84
2022/11/22 00:59:10;;;;;;;11.40;3.28;;;;;;;5.00;100.00;98982.53;5076882;28;20283;-85
2022/11/22 01:01:36;;;;;;;16.23;3.57;;;;;;;4.96;100.00;98982.19;5077124;28;20059;-84
2022/11/22 01:04:01;;;;;;;9.90;3.27;;;;;;;4.92;100.00;98975.59;5059670;28;20384;-84
2022/11/22 01:06:26;;;;;;;11.77;2.97;;;;;;;4.88;100.00;98979.78;5059817;28;20151;-85
2022/11/22 01:08:52;;;;;;;12.13;3.37;;;;;;;4.85;100.00;98985.59;5076326;28;20037;-84
2022/11/22 01:11:18;;;;;;;12.30;2.80;;;;;;;4.84;100.00;98982.09;5076669;28;20039;-85
2022/11/22 01:13:43;;;;;;;13.43;2.97;;;;;;;4.84;100.00;98986.63;5076365;28;20040;-84
2022/11/22 01:16:11;;;;;;;12.13;3.08;;;;;;;4.78;100.00;98984.84;5075489;28;20270;-84
2022/11/22 01:18:36;;;;;;;10.18;2.95;;;;;;;4.76;100.00;98989.63;5059634;28;20043;-84
2022/11/22 01:21:03;;;;;;;16.83;3.50;;;;;;;4.73;100.00;98998.94;5059548;28;20048;-84
2022/11/22 01:23:29;;;;;;;11.85;3.17;;;;;;;4.72;100.00;98997.31;5076105;28;20071;-84
2022/11/22 01:25:55;;;;;;;10.27;2.70;;;;;;;4.75;100.00;98996.84;5059624;28;20131;-84
2022/11/22 01:28:20;;;;;;;15.70;3.03;;;;;;;4.71;100.00;98996.50;5059772;28;20518;-84
2022/11/22 01:30:49;;;;;;;10.40;3.00;;;;;;;4.66;100.00;98998.19;5075795;28;20492;-84
2022/11/22 01:33:15;;;;;;;14.27;3.08;;;;;;;4.66;100.00;98995.50;5059402;28;20105;-84
2022/11/22 01:35:42;;;;;;;15.82;2.70;;;;;;;4.65;100.00;98997.38;5076026;28;20040;-84
2022/11/22 01:38:07;;;;;;;18.95;2.78;;;;;;;4.61;100.00;98995.38;5059392;28;20036;-84
2022/11/22 01:40:32;;;;;;;20.00;2.73;;;;;;;4.63;100.00;98998.63;5060194;28;20043;-84
2022/11/22 01:42:59;;;;;;;8.13;2.10;;;;;;;4.65;100.00;99002.75;5075935;28;20040;-84
2022/11/22 01:45:28;;;;;;;12.35;2.70;;;;;;;4.64;100.00;99014.53;5059064;28;20079;-84
2022/11/22 01:48:19;;;;;;;11.68;2.17;;;;;;;4.59;100.00;99011.69;5076094;28;20043;-84
2022/11/22 01:50:49;;;;;;;14.68;2.20;;;;;;;4.65;100.00;99021.56;5094024;28;20043;-84
2022/11/22 01:53:21;;;;;;;10.67;2.20;;;;;;;4.67;100.00;99016.78;5094297;28;20032;-84
2022/11/22 01:55:50;;;;;;;11.02;2.38;;;;;;;4.63;100.00;99020.94;5076088;28;20120;-84
2022/11/22 01:58:17;;;;;;;20.70;3.28;;;;;;;4.63;100.00;99022.81;5076023;28;20036;-84
2022/11/22 02:00:43;;;;;;;12.60;2.10;;;;;;;4.61;100.00;99020.34;5075622;28;20047;-84
2022/11/22 02:03:11;;;;;;;18.00;2.27;;;;;;;4.65;100.00;99018.03;5093841;28;20115;-84
2022/11/22 02:05:40;;;;;;;18.05;2.10;;;;;;;4.63;100.00;99031.69;5075738;28;20040;-84
2022/11/22 02:08:21;;;;;;;15.38;2.30;;;;;;;4.63;100.00;99026.31;5093508;28;20457;-84
2022/11/22 02:10:49;;;;;;;15.27;1.88;;;;;;;4.72;100.00;99027.69;5075910;28;20058;-84
2022/11/22 02:13:18;;;;;;;14.00;1.73;;;;;;;4.67;100.00;99027.53;5075595;28;20044;-84
2022/11/22 02:15:43;;;;;;;16.33;1.90;;;;;;;4.65;100.00;99034.16;5075772;28;20054;-85
2022/11/22 02:18:09;;;;;;;14.17;1.93;;;;;;;4.71;100.00;99033.25;5058924;28;20040;-84
2022/11/22 02:20:36;;;;;;;18.58;2.30;;;;;;;4.67;100.00;99029.41;5042350;28;20036;-84
2022/11/22 02:23:19;;;;;;;20.17;2.70;;;;;;;4.63;100.00;99029.00;5075588;28;20117;-85
2022/11/22 02:25:58;;;;;;;15.93;2.50;;;;;;;4.56;100.00;99023.72;5094855;28;20084;-84
2022/11/22 02:28:27;;;;;;;18.60;2.50;;;;;;;4.54;100.00;99038.41;5097437;28;20054;-85
2022/11/22 02:30:53;;;;;;;15.52;1.98;;;;;;;4.54;100.00;99036.53;5097504;28;20518;-85
2022/11/22 02:33:18;;;;;;;16.88;2.72;;;;;;;4.49;100.00;99049.00;5063902;28;20052;-85
2022/11/22 02:35:44;;;;;;;16.20;2.10;;;;;;;4.50;100.00;99045.25;5062632;28;20051;-84
2022/11/22 02:38:14;;;;;;;13.33;2.17;;;;;;;4.50;100.00;99040.72;5079434;28;20064;-85
2022/11/22 02:40:52;;;;;;;13.45;1.60;;;;;;;4.44;100.00;99032.69;5079241;28;20040;-84
2022/11/22 02:43:37;;;;;;;15.85;2.35;;;;;;;4.46;100.00;99039.50;5079446;28;20480;-84
2022/11/22 02:46:04;;;;;;;11.68;1.90;;;;;;;4.39;100.00;99036.84;5090256;28;20044;-85
2022/11/22 02:48:29;;;;;;;15.73;1.80;;;;;;;4.39;100.00;99034.16;5097291;28;20042;-84
2022/11/22 02:50:55;;;;;;;16.43;2.47;;;;;;;4.32;100.00;99038.78;5097182;28;20040;-84
2022/11/22 02:53:20;;;;;;;22.17;1.70;;;;;;;4.34;100.00;99043.91;5079038;28;20563;-84
2022/11/22 02:55:46;;;;;;;16.80;1.83;;;;;;;4.30;100.00;99053.47;5079068;28;20085;-85
2022/11/22 02:58:11;;;;;;;21.10;2.10;;;;;;;4.28;100.00;99059.06;5062225;28;20392;-85
2022/11/22 03:00:38;;;;;;;13.90;1.77;;;;;;;4.26;100.00;99046.88;5062254;28;20075;-85
2022/11/22 03:03:03;;;;;;;14.97;1.73;;;;;;;4.21;100.00;99048.34;5062281;28;20480;-85
2022/11/22 03:05:29;;;;;;;12.52;2.30;;;;;;;4.17;100.00;99046.34;5062105;28;20042;-84
2022/11/22 03:07:54;;;;;;;15.97;2.07;;;;;;;4.10;100.00;99035.63;5096640;28;20126;-84
2022/11/22 03:10:20;;;;;;;13.40;2.20;;;;;;;4.12;100.00;99040.78;5062015;28;20043;-84
2022/11/22 03:12:45;;;;;;;12.13;1.67;;;;;;;4.14;100.00;99047.59;5079328;28;20044;-84
2022/11/22 03:15:10;;;;;;;23.70;1.80;;;;;;;4.09;100.00;99060.84;5096518;28;20094;-84
2022/11/22 03:17:36;;;;;;;13.33;1.73;;;;;;;4.11;100.00;99060.63;5096761;28;20043;-85
2022/11/22 03:20:03;;;;;;;17.37;2.13;;;;;;;4.04;100.00;99079.44;5078717;28;20043;-84
2022/11/22 03:22:28;;;;;;;15.23;1.73;;;;;;;3.99;100.00;99071.22;5078848;28;20043;-84
2022/11/22 03:24:53;;;;;;;17.73;2.13;;;;;;;3.99;100.00;99071.22;5061764;28;20040;-84
2022/11/22 03:27:19;;;;;;;13.63;1.60;;;;;;;3.93;100.00;99072.91;5078966;28;20043;-84
2022/11/22 03:29:44;;;;;;;22.42;2.15;;;;;;;3.86;100.00;99069.44;5061556;28;20894;-84
2022/11/22 03:32:10;;;;;;;9.60;1.27;;;;;;;3.83;100.00;99062.63;5078612;28;20040;-84
2022/11/22 03:34:35;;;;;;;18.43;1.87;;;;;;;3.80;100.00;99071.13;5078541;28;20369;-84
2022/11/22 03:37:00;;;;;;;15.20;1.90;;;;;;;3.77;100.00;99073.41;5077763;28;20088;-84
2022/11/22 03:39:26;;;;;;;12.57;1.60;;;;;;;3.75;100.00;99070.13;5061677;28;20036;-84
2022/11/22 03:41:54;;;;;;;13.98;1.27;;;;;;;3.73;100.00;99064.97;5045203;28;20286;-84
2022/11/22 03:44:19;;;;;;;17.42;2.00;;;;;;;3.73;100.00;99070.31;5078169;28;20134;-84
2022/11/22 03:46:45;;;;;;;24.42;2.17;;;;;;;3.71;100.00;99074.28;5074520;28;20126;-84
2022/11/22 03:49:11;;;;;;;12.93;1.93;;;;;;;3.64;100.00;99067.06;5057668;28;20087;-84
2022/11/22 03:51:36;;;;;;;16.13;1.70;;;;;;;3.70;100.00;99076.13;5057959;28;20102;-85
2022/11/22 03:54:01;;;;;;;15.37;1.83;;;;;;;3.61;100.00;99067.50;5074543;28;20101;-84
2022/11/22 03:56:27;;;;;;;13.13;1.83;;;;;;;3.63;100.00;99070.81;5074269;28;20499;-84
2022/11/22 03:58:52;;;;;;;18.10;1.40;;;;;;;3.55;100.00;99072.91;5074501;28;20040;-84
2022/11/22 04:01:17;;;;;;;19.95;1.65;;;;;;;3.62;100.00;99068.34;5075373;28;20036;-84
2022/11/22 04:03:43;;;;;;;15.43;2.22;;;;;;;3.57;100.00;99078.88;5057721;28;20538;-84
2022/11/22 04:06:08;;;;;;;24.33;1.87;;;;;;;3.54;100.00;99079.28;5074352;28;20052;-84
2022/11/22 04:08:34;;;;;;;15.20;1.27;;;;;;;3.47;100.00;99073.94;5074290;28;20370;-85
2022/11/22 04:10:59;;;;;;;14.57;2.60;;;;;;;3.41;100.00;99072.97;5057498;28;20040;-85
2022/11/22 04:15:05;;;;;;;13.00;2.00;;;;;;;3.37;100.00;99077.09;5041125;28;20090;-85
2022/11/22 04:16:10;;;;;;;23.75;2.40;;;;;;;3.33;100.00;99081.22;5074200;28;20578;-84
2022/11/22 04:18:35;;;;;;;17.35;2.17;;;;;;;3.33;100.00;99094.63;5074099;28;20040;-85
2022/11/22 04:25:12;;;;;;;7.90;1.37;;;;;;;3.27;100.00;99108.88;5060499;28;20460;-84
2022/11/22 04:26:30;;;;;;;12.57;1.40;;;;;;;3.32;100.00;99106.38;5073930;28;20064;-84
2022/11/22 04:28:55;;;;;;;22.37;2.20;;;;;;;3.28;100.00;99114.03;5074867;28;20498;-84
2022/11/22 04:34:05;;;;;;;11.40;2.35;;;;;;;3.23;100.00;99096.94;5074449;28;20607;-84
2022/11/22 04:36:30;;;;;;;16.10;2.50;;;;;;;3.17;100.00;99101.25;5073990;28;20045;-84
2022/11/22 04:38:55;;;;;;;18.70;2.35;;;;;;;3.09;100.00;99109.53;5074009;28;20274;-85
2022/11/22 04:41:21;;;;;;;22.10;2.10;;;;;;;3.10;100.00;99112.03;5056980;28;20507;-84
2022/11/22 04:46:30;;;;;;;12.85;1.77;;;;;;;3.11;100.00;99102.13;5082395;28;20054;-84
2022/11/22 04:48:56;;;;;;;14.67;1.90;;;;;;;3.08;100.00;99108.69;5060264;28;20036;-85
2022/11/22 04:54:05;;;;;;;16.20;1.80;;;;;;;3.11;100.00;99113.66;5066069;28;20059;-84
2022/11/22 04:56:30;;;;;;;13.97;1.90;;;;;;;3.18;100.00;99120.88;5076805;28;20461;-85
2022/11/22 04:58:56;;;;;;;17.83;3.00;;;;;;;3.14;100.00;99115.09;5076601;28;20040;-84
2022/11/22 05:01:21;;;;;;;14.45;1.48;;;;;;;3.14;100.00;99107.06;5076519;28;20597;-84
2022/11/22 05:03:46;;;;;;;14.33;1.47;;;;;;;3.13;100.00;99121.47;5077616;28;20051;-84
2022/11/22 05:06:13;;;;;;;13.17;1.60;;;;;;;3.12;100.00;99126.03;5094897;28;20043;-84
2022/11/22 05:08:39;;;;;;;19.98;1.67;;;;;;;3.04;100.00;99125.41;5076159;28;20063;-85
2022/11/22 05:11:04;;;;;;;15.30;1.60;;;;;;;3.04;100.00;99125.41;5059401;28;20111;-84
2022/11/22 05:13:37;;;;;;;18.30;1.42;;;;;;;2.99;100.00;99124.19;5060022;28;20109;-84
2022/11/22 05:16:05;;;;;;;12.50;1.75;;;;;;;2.95;100.00;99122.13;5077184;28;20475;-84
2022/11/22 05:18:30;;;;;;;11.05;1.30;;;;;;;2.94;100.00;99124.00;5076100;28;20028;-84
2022/11/22 05:20:56;;;;;;;11.93;1.58;;;;;;;2.86;100.00;99118.84;5059392;28;20085;-84
2022/11/22 05:26:08;;;;;;;15.57;1.55;;;;;;;2.90;100.00;99122.75;5094948;28;20043;-85
2022/11/22 05:28:35;;;;;;;12.17;1.53;;;;;;;2.90;100.00;99113.91;5076098;28;20506;-84
2022/11/22 05:31:16;;;;;;;19.83;1.55;;;;;;;2.89;100.00;99117.59;5093849;28;20039;-84
2022/11/22 05:33:44;;;;;;;11.70;1.27;;;;;;;2.94;100.00;99115.94;5094333;28;20078;-84
2022/11/22 05:36:10;;;;;;;16.65;1.90;;;;;;;2.89;100.00;99115.72;5075936;28;20498;-84
2022/11/22 05:38:38;;;;;;;11.55;1.33;;;;;;;2.86;100.00;99107.31;5076176;28;20361;-85
2022/11/22 05:41:06;;;;;;;22.27;1.60;;;;;;;2.81;100.00;99114.09;5059293;28;20078;-85
2022/11/22 05:43:32;;;;;;;13.95;1.95;;;;;;;2.79;100.00;99116.19;5075893;28;20097;-85
2022/11/22 05:46:11;;;;;;;14.90;1.73;;;;;;;2.77;100.00;99114.72;5073618;28;20090;-85
2022/11/22 05:48:39;;;;;;;14.02;2.50;;;;;;;2.74;100.00;99115.97;5075714;28;20055;-85
2022/11/22 05:51:06;;;;;;;17.02;2.08;;;;;;;2.69;100.00;99125.63;5075380;28;20040;-84
2022/11/22 05:53:33;;;;;;;12.65;1.20;;;;;;;2.72;100.00;99119.91;5076428;28;20036;-85
2022/11/22 05:56:03;;;;;;;17.85;1.42;;;;;;;2.73;100.00;99111.66;5076040;28;20540;-84
2022/11/22 05:58:28;;;;;;;13.60;1.65;;;;;;;2.72;100.00;99103.81;5059359;28;20058;-85
2022/11/22 06:00:54;;;;;;;9.07;1.33;;;;;;;2.70;100.00;99108.53;5075974;28;20523;-85
2022/11/22 06:03:19;;;;;;;12.93;1.67;;;;;;;2.66;100.00;99105.47;5075922;28;20090;-84
2022/11/22 06:05:52;;;;;;;15.33;1.60;;;;;;;2.63;100.00;99105.88;5075891;28;20123;-85
2022/11/22 06:08:17;;;;;;;9.43;0.95;;;;;;;2.64;100.00;99104.84;5059550;28;20094;-85
2022/11/22 06:10:45;;;;;;;12.23;1.60;;;;;;;2.59;100.00;99113.50;5075285;28;20479;-86
2022/11/22 06:13:11;;;;;;;8.85;1.25;;;;;;;2.53;100.00;99116.19;5075664;28;20078;-85
2022/11/22 06:15:36;;;;;;;10.77;1.40;;;;;;;2.50;100.00;99119.28;5075808;28;20079;-85
2022/11/22 06:18:01;;;;;;;16.30;1.20;;;;;;;2.53;100.00;99114.31;5058681;28;20044;-84
2022/11/22 06:20:27;;;;;;;15.30;1.40;;;;;;;2.49;100.00;99121.09;5093893;28;20044;-83
2022/11/22 06:22:52;;;;;;;15.20;1.65;;;;;;;2.46;100.00;99110.81;5075849;28;20098;-84
2022/11/22 06:25:20;;;;;;;13.18;1.90;;;;;;;2.44;100.00;99113.69;5042311;28;20064;-84
2022/11/22 06:27:45;;;;;;;12.82;1.67;;;;;;;2.42;100.00;99120.28;5075174;28;20059;-84
2022/11/22 06:30:11;;;;;;;17.52;1.75;;;;;;;2.38;100.00;99124.41;5075301;28;20419;-83
2022/11/22 06:32:36;;;;;;;14.37;1.47;;;;;;;2.37;100.00;99122.75;5075920;28;20044;-84
2022/11/22 06:35:02;;;;;;;22.87;2.07;;;;;;;2.37;100.00;99118.22;5075785;28;20051;-84
2022/11/22 06:37:28;;;;;;;15.02;1.70;;;;;;;2.36;100.00;99138.00;5093117;28;20040;-84
2022/11/22 06:39:54;;;;;;;15.00;1.58;;;;;;;2.42;100.00;99134.50;5075239;28;20126;-84
2022/11/22 06:42:19;;;;;;;12.17;1.70;;;;;;;2.44;100.00;99148.50;5042487;28;20071;-84
2022/11/22 06:44:45;;;;;;;12.83;1.70;;;;;;;2.52;100.00;99144.78;5058617;28;20043;-84
2022/11/22 06:47:10;;;;;;;16.37;2.00;;;;;;;2.57;100.00;99139.66;5071368;28;20501;-84
2022/11/22 06:49:36;;;;;;;7.40;1.55;;;;;;;2.62;100.00;99139.84;5071614;28;20519;-83
2022/11/22 06:52:01;;;;;;;13.57;1.77;;;;;;;2.71;100.00;99135.13;5071462;28;20060;-84
2022/11/22 06:54:29;;;;;;;11.70;1.50;;;;;;;2.79;100.00;99137.59;5055439;28;20119;-83
2022/11/22 06:56:54;;;;;;;15.52;2.30;;;;;;;2.81;100.00;99138.22;5055399;28;20037;-84
2022/11/22 06:59:19;;;;;;;10.17;1.50;;;;;;;2.89;100.00;99147.88;5071949;28;20461;-83
2022/11/22 07:01:45;;;;;;;10.60;1.40;;;;;;;2.99;100.00;99161.69;5055978;28;20041;-83
2022/11/22 07:04:10;;;;;;;15.67;1.90;;;;;;;3.06;100.00;99155.53;5055587;28;20126;-84
2022/11/22 07:06:37;;;;;;;13.20;1.70;;;;;;;3.16;100.00;99161.28;5072480;28;20058;-84
2022/11/22 07:09:06;;;;;;;13.87;1.57;;;;;;;3.19;100.00;99168.91;5071178;28;20039;-84
2022/11/22 07:11:32;;;;;;;8.70;1.80;;;;;;;3.25;100.00;99156.50;5071230;28;20558;-83
2022/11/22 07:13:59;;;;;;;10.88;1.60;;;;;;;3.31;100.00;99167.22;5073402;28;20140;-84
2022/11/22 07:16:24;;;;;;;10.10;1.60;;;;;;;3.33;100.00;99173.19;5058495;28;20135;-83
2022/11/22 07:18:50;;;;;;;10.20;1.80;;;;;;;3.38;100.00;99152.97;5074754;28;20540;-84
2022/11/22 07:21:18;;;;;;;14.07;1.60;;;;;;;3.38;100.00;99159.19;5058472;28;20036;-84
2022/11/22 07:23:46;;;;;;;9.75;1.50;;;;;;;3.47;100.00;99155.22;5076726;28;20036;-83
2022/11/22 07:26:13;;;;;;;8.23;1.60;;;;;;;3.48;100.00;99151.53;5074486;28;20473;-83
2022/11/22 07:28:38;;;;;;;7.00;1.40;;;;;;;3.59;100.00;99168.81;5076155;28;20143;-83
2022/11/22 07:31:07;;;;;;;9.07;1.33;;;;;;;3.61;100.00;99166.72;5074682;28;20517;-83
2022/11/22 07:33:33;;;;;;;16.30;1.80;;;;;;;3.65;100.00;99157.22;5074483;28;20051;-84
2022/11/22 07:36:09;;;;;;;7.93;1.20;;;;;;;3.69;100.00;99163.81;5075519;28;20040;-83
2022/11/22 07:38:35;;;;;;;9.70;1.25;;;;;;;3.68;100.00;99162.16;5075144;28;20032;-83
2022/11/22 07:41:00;;;;;;;8.63;1.60;;;;;;;3.72;100.00;99169.78;5074520;28;20528;-83
2022/11/22 07:43:26;;;;;;;7.32;1.10;;;;;;;3.75;100.00;99164.84;5074704;28;20412;-84
2022/11/22 07:45:51;;;;;;;10.00;1.87;;;;;;;3.81;100.00;99165.84;5058157;28;20136;-83
2022/11/22 07:48:17;;;;;;;11.17;1.40;;;;;;;3.83;100.00;99171.81;5074733;28;20370;-84
2022/11/22 07:50:42;;;;;;;8.47;0.93;;;;;;;3.89;100.00;99159.44;5074054;28;20080;-83
2022/11/22 07:53:08;;;;;;;10.43;1.30;;;;;;;3.91;100.00;99168.88;5040834;28;20094;-83
2022/11/22 07:55:34;;;;;;;10.97;1.60;;;;;;;3.96;100.00;99170.97;5074152;28;20029;-83
2022/11/22 07:58:00;;;;;;;7.07;1.17;;;;;;;3.98;100.00;99166.19;5074408;28;20040;-84
2022/11/22 08:00:26;;;;;;;9.10;1.40;;;;;;;4.03;100.00;99175.25;5074047;28;20495;-83
2022/11/22 08:02:52;;;;;;;7.07;1.07;;;;;;;4.04;100.00;99178.75;5057384;28;20075;-83
2022/11/22 08:05:18;;;;;;;14.63;1.23;;;;;;;4.08;100.00;99169.25;5057846;28;20060;-83
2022/11/22 08:07:51;;;;;;;10.27;1.27;;;;;;;4.13;100.00;99176.66;5058468;28;20086;-83
2022/11/22 08:10:16;;;;;;;5.47;1.17;;;;;;;4.15;100.00;99163.81;5057447;28;20105;-83
2022/11/22 08:12:43;;;;;;;5.93;1.42;;;;;;;4.21;100.00;99168.34;5073870;28;20040;-83
2022/11/22 08:15:12;;;;;;;11.00;1.63;;;;;;;4.27;100.00;99172.03;5057441;28;20051;-83
2022/11/22 08:17:37;;;;;;;5.82;1.30;;;;;;;4.28;100.00;99171.81;5074184;28;20037;-83
2022/11/22 08:20:05;;;;;;;6.93;1.08;;;;;;;4.33;100.00;99173.88;5073894;28;20193;-83
2022/11/22 08:22:30;;;;;;;7.43;1.42;;;;;;;4.33;100.00;99174.69;5075153;28;20032;-83
2022/11/22 08:24:56;;;;;;;4.43;1.10;;;;;;;4.38;100.00;99180.25;5073782;28;20389;-83
2022/11/22 08:27:22;;;;;;;8.65;1.15;;;;;;;4.37;100.00;99165.16;5073999;28;20048;-83
2022/11/22 08:29:48;;;;;;;7.40;1.00;;;;;;;4.41;100.00;99183.53;5057030;28;20082;-83
2022/11/22 08:32:13;;;;;;;11.57;1.55;;;;;;;4.44;100.00;99183.09;5073830;28;20490;-83
2022/11/22 08:34:39;;;;;;;6.17;1.30;;;;;;;4.49;100.00;99175.22;5040695;28;20465;-83
2022/11/22 08:37:04;;;;;;;10.70;1.43;;;;;;;4.50;100.00;99180.38;5056733;28;20140;-83
2022/11/22 08:39:30;;;;;;;8.10;0.70;;;;;;;4.59;100.00;99180.91;5057902;28;20373;-83
2022/11/22 08:41:55;;;;;;;6.78;1.10;;;;;;;4.56;100.00;99184.03;5057161;28;20043;-83
2022/11/22 08:44:21;;;;;;;5.37;1.00;;;;;;;4.62;100.00;99191.25;5057778;28;20377;-83
2022/11/22 08:46:46;;;;;;;3.50;0.90;;;;;;;4.64;100.00;99186.47;5073132;28;20493;-83
2022/11/22 08:49:11;;;;;;;10.60;1.57;;;;;;;4.70;100.00;99179.41;5040029;28;20071;-83
2022/11/22 08:51:43;;;;;;;4.75;1.13;;;;;;;4.79;100.00;99178.09;5056527;28;20052;-84
2022/11/22 08:54:10;;;;;;;9.60;1.37;;;;;;;4.92;100.00;99182.53;5073124;28;20055;-83
2022/11/22 08:56:35;;;;;;;8.10;1.02;;;;;;;4.96;100.00;99190.97;5073574;28;20036;-83
2022/11/22 08:59:00;;;;;;;7.40;1.20;;;;;;;4.94;100.00;99182.31;5056717;28;20537;-83
2022/11/22 09:01:26;;;;;;;9.65;1.15;;;;;;;4.93;100.00;99186.84;5073041;28;20052;-83
2022/11/22 09:03:51;;;;;;;5.87;1.00;;;;;;;5.00;100.00;99176.88;5056339;28;20079;-83
2022/11/22 09:06:21;;;;;;;11.23;2.40;;;;;;;4.99;100.00;99188.69;5056450;28;20104;-83
2022/11/22 09:08:46;;;;;;;4.82;0.80;;;;;;;5.00;100.00;99181.44;5072798;28;20044;-83
2022/11/22 09:11:14;;;;;;;8.90;1.03;;;;;;;5.09;100.00;99196.25;5056805;28;20046;-83
2022/11/22 09:13:40;;;;;;;9.38;1.20;;;;;;;5.07;100.00;99198.34;5072974;28;20533;-84
2022/11/22 09:16:08;;;;;;;6.83;1.20;;;;;;;5.09;100.00;99199.78;5073589;28;20068;-83
2022/11/22 09:18:34;;;;;;;7.07;1.00;;;;;;;5.14;100.00;99190.19;5073138;28;20051;-83
2022/11/22 09:21:05;;;;;;;11.13;1.10;;;;;;;5.17;100.00;99198.66;5056215;28;20431;-83
2022/11/22 09:23:31;;;;;;;5.55;1.33;;;;;;;5.23;100.00;99195.09;5072791;28;20037;-83
2022/11/22 09:26:05;;;;;;;8.45;1.38;;;;;;;5.32;100.00;99195.63;5056133;28;20041;-83
2022/11/22 09:28:30;;;;;;;8.70;1.53;;;;;;;5.38;100.00;99197.44;5073075;28;20040;-83
2022/11/22 09:31:00;;;;;;;5.80;1.15;;;;;;;5.42;100.00;99200.50;5073338;28;20036;-83
2022/11/22 09:33:27;;;;;;;8.03;1.60;;;;;;;5.44;100.00;99204.59;5056279;28;20083;-83
2022/11/22 09:35:58;;;;;;;6.00;1.30;;;;;;;5.54;100.00;99197.91;5071757;28;20511;-83
2022/11/22 09:38:24;;;;;;;3.95;1.52;;;;;;;5.59;100.00;99200.75;5072904;28;20046;-83
2022/11/22 09:40:49;;;;;;;4.23;0.87;;;;;;;5.64;100.00;99200.91;5056203;28;20427;-83
2022/11/22 09:43:53;;;;;;;4.10;1.10;;;;;;;5.72;100.00;99202.47;5056409;28;20380;-83
2022/11/22 09:46:37;;;;;;;7.03;1.25;;;;;;;5.74;100.00;99198.53;5041961;28;20119;-83
2022/11/22 09:49:33;;;;;;;10.05;1.52;;;;;;;5.76;100.00;99204.50;5076305;28;20050;-83
2022/11/22 09:52:16;;;;;;;8.60;0.88;;;;;;;5.85;100.00;99198.81;5076329;28;20591;-83
2022/11/22 09:54:50;;;;;;;7.05;1.08;;;;;;;5.84;100.00;99207.94;5076674;28;20040;-83
2022/11/22 09:57:25;;;;;;;9.33;0.97;;;;;;;5.88;100.00;99201.88;5094096;28;20042;-84
2022/11/22 10:00:00;;;;;;;5.60;0.90;;;;;;;5.81;100.00;99203.81;5075984;28;20464;-85
2022/11/22 10:02:34;;;;;;;5.13;0.93;;;;;;;5.81;100.00;99209.19;5075508;28;20036;-84
2022/11/22 10:05:04;;;;;;;6.28;1.00;;;;;;;5.84;100.00;99205.25;5075836;28;20482;-84
2022/11/22 10:07:41;;;;;;;5.18;1.20;;;;;;;5.74;100.00;99211.97;5075889;28;20032;-85
2022/11/22 10:10:17;;;;;;;11.03;1.20;;;;;;;5.76;100.00;99209.88;5094001;28;20035;-84
2022/11/22 10:13:05;;;;;;;6.80;1.00;;;;;;;5.77;100.00;99213.38;5075943;28;20135;-84
2022/11/22 10:15:47;;;;;;;4.75;1.10;;;;;;;5.75;100.00;99210.91;5075152;28;20047;-84
2022/11/22 10:18:39;;;;;;;3.92;0.70;;;;;;;5.80;100.00;99199.47;5075741;28;20040;-85
2022/11/22 10:21:10;;;;;;;4.95;0.77;;;;;;;5.78;100.00;99206.97;5075957;28;20469;-85
2022/11/22 10:23:36;;;;;;;4.10;0.90;;;;;;;5.78;100.00;99205.06;5075480;28;20071;-85
2022/11/22 10:26:13;;;;;;;9.02;0.70;;;;;;;5.72;100.00;99200.59;5075420;28;20036;-85
2022/11/22 10:29:02;;;;;;;9.65;1.10;;;;;;;5.63;100.00;99199.25;5075673;28;20036;-84
2022/11/22 10:31:37;;;;;;;4.97;0.77;;;;;;;5.68;100.00;99195.91;5075651;28;20036;-84
2022/11/22 10:34:12;;;;;;;4.28;0.70;;;;;;;5.74;100.00;99185.06;5075687;28;20098;-85
2022/11/22 10:37:00;;;;;;;3.70;0.60;;;;;;;5.87;100.00;99180.56;5075387;28;20047;-84
2022/11/22 10:39:59;;;;;;;4.45;0.73;;;;;;;5.97;100.00;99184.41;5076027;28;20032;-84
2022/11/22 10:42:47;;;;;;;2.95;0.80;;;;;;;6.01;100.00;99175.88;5076161;28;20128;-85
2022/11/22 10:45:29;;;;;;;5.40;0.80;;;;;;;6.05;100.00;99185.13;5075011;28;20040;-84
2022/11/22 10:48:13;;;;;;;4.75;1.23;;;;;;;6.11;100.00;99182.38;5073786;28;20044;-85
2022/11/22 10:51:19;;;;;;;4.60;0.70;;;;;;;6.18;100.00;99170.69;5077062;28;20048;-84
2022/11/22 10:53:56;;;;;;;4.95;0.90;;;;;;;6.25;100.00;99179.50;5052827;28;20119;-84
2022/11/22 10:56:48;;;;;;;5.00;0.95;;;;;;;6.28;100.00;99177.16;5075838;28;20492;-84
2022/11/22 10:59:35;;;;;;;4.43;0.95;;;;;;;6.34;100.00;99163.84;5075406;28;20021;-84
2022/11/22 11:02:45;;;;;;;4.45;0.80;;;;;;;6.53;100.00;99170.81;5076821;28;20040;-85
2022/11/22 11:05:15;;;;;;;4.40;0.70;;;;;;;6.55;98.96;99159.81;5054816;28;20033;-84
2022/11/22 11:07:45;;;;;;;4.40;0.77;;;;;;;6.54;99.81;99161.69;5075182;28;20028;-83
2022/11/22 11:10:20;;;;;;;2.63;0.88;;;;;;;6.63;99.17;99162.19;5075240;28;20069;-84
2022/11/22 11:12:46;;;;;;;2.47;0.57;;;;;;;6.57;98.64;99153.16;5075561;28;20131;-84
2022/11/22 11:15:14;;;;;;;1.83;0.60;;;;;;;6.54;98.81;99164.38;5075571;28;20072;-84
2022/11/22 11:17:41;;;;;;;3.60;0.80;;;;;;;6.53;98.83;99149.25;5075200;28;20055;-84
2022/11/22 11:20:18;;;;;;;2.28;0.55;;;;;;;6.54;99.32;99153.59;5058844;28;20121;-84
2022/11/22 11:22:44;;;;;;;2.95;0.68;;;;;;;6.56;98.35;99147.97;5075502;28;20475;-85
2022/11/22 11:25:31;;;;;;;6.63;0.73;;;;;;;6.63;98.69;99140.63;5059147;28;20032;-85
2022/11/22 11:28:02;;;;;;;3.30;0.60;;;;;;;6.70;97.71;99148.59;5075908;28;20472;-85
2022/11/22 11:30:36;;;;;;;4.55;0.57;;;;;;;6.75;97.91;99132.56;5074895;28;20040;-85
2022/11/22 11:33:15;;;;;;;3.00;0.60;;;;;;;6.77;97.25;99138.53;5074968;28;20102;-84
2022/11/22 11:35:43;;;;;;;1.95;0.50;;;;;;;6.78;96.97;99126.69;5076543;28;20456;-84
2022/11/22 11:38:47;;;;;;;2.28;0.40;;;;;;;6.79;96.73;99128.31;5076435;28;20036;-84
2022/11/22 11:41:23;;;;;;;1.52;0.40;;;;;;;6.76;96.52;99126.09;5074876;28;20048;-84
2022/11/22 11:44:00;;;;;;;1.50;0.52;;;;;;;6.71;95.66;99132.19;5075973;28;20028;-84
2022/11/22 11:46:27;;;;;;;2.65;0.43;;;;;;;6.70;95.99;99132.41;5058664;28;20130;-84
2022/11/22 11:49:14;;;;;;;1.35;0.40;;;;;;;6.71;94.92;99126.78;5093085;28;20098;-84
2022/11/22 11:51:47;;;;;;;1.88;0.30;;;;;;;6.72;95.63;99141.91;5077390;28;20036;-85